Time;durP1;ratioP1;P1;durP2;ratioP2;P2;SDS_P1;SDS_P2;PMS_P1;PMS_P2;Temp;Humidity;BMP_temperature;BMP_pressure;BME280_temperature;BME280_humidity;BME280_pressure;Samples;Min_cycle;Max_cycle;Signal;HPM_P1;HPM_P2
2021/03/06 00:00:22;;;;;;;3.33;2.28;;;17.30;48.40;;;;;;4991611;28;20244;-65
2021/03/06 00:02:48;;;;;;;4.05;2.42;;;17.30;48.40;;;;;;4995613;28;20038;-64
2021/03/06 00:05:13;;;;;;;2.47;2.10;;;17.30;48.10;;;;;;4987245;28;20069;-65
2021/03/06 00:07:39;;;;;;;4.40;2.22;;;17.40;48.00;;;;;;4993483;28;20400;-64
2021/03/06 00:10:05;;;;;;;3.45;2.40;;;17.40;47.80;;;;;;4994137;28;20105;-63
2021/03/06 00:12:31;;;;;;;2.92;2.20;;;17.40;47.80;;;;;;4996091;28;20035;-64
2021/03/06 00:14:56;;;;;;;3.70;2.42;;;17.40;47.70;;;;;;4997669;28;20026;-63
2021/03/06 00:17:22;;;;;;;3.90;2.53;;;17.40;47.60;;;;;;4995203;28;20026;-63
2021/03/06 00:19:48;;;;;;;4.45;2.50;;;17.40;47.50;;;;;;4996956;28;20570;-63
2021/03/06 00:22:13;;;;;;;3.22;2.40;;;17.40;47.40;;;;;;4973294;28;20833;-65
2021/03/06 00:24:38;;;;;;;3.67;2.75;;;17.40;47.40;;;;;;4997704;28;20030;-63
2021/03/06 00:27:04;;;;;;;4.63;2.85;;;17.40;47.50;;;;;;4995758;28;20029;-62
2021/03/06 00:29:30;;;;;;;2.90;2.25;;;17.40;47.40;;;;;;4995359;28;20117;-63
2021/03/06 00:31:55;;;;;;;3.42;2.13;;;17.40;47.60;;;;;;4997112;28;20423;-65
2021/03/06 00:34:21;;;;;;;3.58;2.33;;;17.30;47.80;;;;;;5018500;23;20101;-59
2021/03/06 00:36:46;;;;;;;3.92;2.50;;;17.20;47.90;;;;;;4979672;28;20031;-60
2021/03/06 00:39:12;;;;;;;4.80;3.13;;;17.20;48.00;;;;;;4986221;28;20038;-63
2021/03/06 00:41:37;;;;;;;4.45;2.25;;;17.10;48.20;;;;;;4978272;28;20034;-61
2021/03/06 00:44:03;;;;;;;4.15;2.55;;;17.10;48.10;;;;;;4975197;28;20043;-61
2021/03/06 00:46:29;;;;;;;4.93;2.60;;;17.10;48.10;;;;;;4973393;28;20035;-61
2021/03/06 00:48:55;;;;;;;3.88;2.30;;;17.20;48.20;;;;;;4975554;28;20109;-62
2021/03/06 00:51:20;;;;;;;4.18;2.35;;;17.30;48.00;;;;;;4973028;28;20465;-60
2021/03/06 00:53:46;;;;;;;4.18;2.65;;;17.30;47.80;;;;;;4975940;28;20054;-60
2021/03/06 00:56:11;;;;;;;4.13;2.45;;;17.40;47.60;;;;;;4973376;28;20537;-60
2021/03/06 00:58:37;;;;;;;3.47;2.05;;;17.50;47.30;;;;;;4976239;28;20055;-61
2021/03/06 01:01:05;;;;;;;3.22;2.30;;;17.60;47.30;;;;;;4974322;28;20449;-59
2021/03/06 01:03:30;;;;;;;3.10;2.40;;;17.60;47.20;;;;;;4975038;28;20045;-57
2021/03/06 01:05:56;;;;;;;4.05;2.60;;;17.70;47.10;;;;;;4976368;28;20038;-60
2021/03/06 01:08:21;;;;;;;3.55;2.28;;;17.70;46.90;;;;;;4976268;28;20523;-61
2021/03/06 01:10:47;;;;;;;2.72;2.10;;;17.70;46.90;;;;;;4974278;28;20041;-61
2021/03/06 01:13:12;;;;;;;2.60;2.13;;;17.80;46.90;;;;;;4973954;28;20029;-60
2021/03/06 01:15:38;;;;;;;2.88;1.85;;;17.80;46.80;;;;;;4976331;28;20058;-61
2021/03/06 01:18:04;;;;;;;3.90;2.22;;;17.80;46.80;;;;;;4977353;28;20022;-60
2021/03/06 01:20:30;;;;;;;3.10;2.00;;;17.70;46.70;;;;;;4969747;28;20046;-62
2021/03/06 01:22:55;;;;;;;3.13;2.08;;;17.80;46.80;;;;;;4975898;28;20448;-60
2021/03/06 01:25:22;;;;;;;3.92;2.20;;;17.80;46.70;;;;;;4979635;28;20041;-61
2021/03/06 01:27:48;;;;;;;3.00;1.95;;;17.80;46.60;;;;;;4973210;28;20519;-61
2021/03/06 01:30:14;;;;;;;2.83;2.03;;;17.80;46.60;;;;;;4973253;28;20039;-61
2021/03/06 01:32:39;;;;;;;2.15;1.77;;;17.80;46.60;;;;;;4972882;28;20030;-61
2021/03/06 01:35:06;;;;;;;3.65;2.33;;;17.80;46.50;;;;;;4969872;28;20636;-61
2021/03/06 01:37:32;;;;;;;3.45;2.17;;;17.80;46.50;;;;;;4975263;28;20625;-60
2021/03/06 01:39:57;;;;;;;3.00;2.05;;;17.70;46.40;;;;;;4968629;28;20038;-61
2021/03/06 01:42:23;;;;;;;2.45;1.80;;;17.70;46.50;;;;;;4975601;28;20042;-61
2021/03/06 01:44:49;;;;;;;2.72;1.75;;;17.70;46.50;;;;;;4973727;28;20452;-61
2021/03/06 01:47:14;;;;;;;2.28;2.00;;;17.70;46.50;;;;;;4973723;28;20030;-61
2021/03/06 01:49:40;;;;;;;3.25;2.17;;;17.70;46.50;;;;;;4975524;28;20117;-60
2021/03/06 01:52:05;;;;;;;3.97;1.88;;;17.70;46.50;;;;;;4976785;28;20037;-60
2021/03/06 01:54:31;;;;;;;2.10;1.65;;;17.60;46.40;;;;;;4973888;28;20516;-62
2021/03/06 01:56:56;;;;;;;3.22;2.20;;;17.70;46.40;;;;;;4969616;28;20065;-61
2021/03/06 01:59:22;;;;;;;3.28;2.30;;;17.60;46.30;;;;;;4975180;28;20022;-60
2021/03/06 02:01:47;;;;;;;2.63;1.70;;;17.60;46.30;;;;;;4956204;28;20039;-59
2021/03/06 02:04:13;;;;;;;2.10;1.50;;;17.60;46.30;;;;;;4972670;28;20378;-61
2021/03/06 02:06:38;;;;;;;2.20;1.85;;;17.60;46.20;;;;;;4973803;28;20053;-60
2021/03/06 02:09:04;;;;;;;3.22;1.70;;;17.60;46.30;;;;;;4965528;28;20042;-61
2021/03/06 02:11:50;;;;;;;2.83;2.50;;;17.60;46.30;;;;;;4975266;28;20089;-60
2021/03/06 02:14:41;;;;;;;2.83;2.03;;;17.60;46.30;;;;;;4969286;28;20122;-61
2021/03/06 02:17:23;;;;;;;2.40;1.65;;;17.50;46.30;;;;;;4975799;28;20038;-60
2021/03/06 02:20:08;;;;;;;2.95;2.03;;;17.50;46.30;;;;;;4965457;28;20030;-61
2021/03/06 02:23:20;;;;;;;2.17;1.98;;;17.50;46.40;;;;;;4974137;28;20527;-62
2021/03/06 02:26:23;;;;;;;3.58;1.88;;;17.50;46.40;;;;;;4940186;28;20053;-60
2021/03/06 02:29:07;;;;;;;2.67;1.73;;;17.50;46.30;;;;;;4986522;28;20039;-61
2021/03/06 02:31:33;;;;;;;3.08;2.20;;;17.50;46.30;;;;;;4973968;28;20411;-61
2021/03/06 02:34:07;;;;;;;2.35;1.55;;;17.50;46.30;;;;;;4977719;28;20627;-60
2021/03/06 02:36:37;;;;;;;2.42;1.77;;;17.50;46.30;;;;;;4986528;28;20129;-61
2021/03/06 02:39:03;;;;;;;3.17;1.70;;;17.50;46.30;;;;;;4994269;28;20121;-61
2021/03/06 02:41:31;;;;;;;3.15;2.20;;;17.40;46.10;;;;;;4979391;28;20035;-61
2021/03/06 02:43:56;;;;;;;3.22;1.95;;;17.40;46.30;;;;;;4984281;28;20615;-60
2021/03/06 02:46:23;;;;;;;3.58;2.50;;;17.40;46.10;;;;;;4981984;28;20039;-60
2021/03/06 02:48:49;;;;;;;2.92;1.70;;;17.40;46.00;;;;;;4994736;28;20124;-62
2021/03/06 02:51:15;;;;;;;2.55;2.05;;;17.50;46.10;;;;;;4978570;28;20112;-60
2021/03/06 02:53:41;;;;;;;3.10;1.60;;;17.40;46.00;;;;;;4993499;28;20531;-61
2021/03/06 02:56:06;;;;;;;2.60;1.77;;;17.40;46.00;;;;;;4993769;28;20045;-57
2021/03/06 02:58:48;;;;;;;2.53;1.92;;;17.40;46.00;;;;;;4993151;28;20810;-61
2021/03/06 03:01:44;;;;;;;3.70;2.08;;;17.40;46.10;;;;;;4990710;28;20030;-61
2021/03/06 03:04:18;;;;;;;3.30;1.80;;;17.40;46.00;;;;;;4990281;28;20030;-60
2021/03/06 03:06:48;;;;;;;2.42;1.80;;;17.40;46.00;;;;;;4976413;28;20037;-63
2021/03/06 03:09:24;;;;;;;3.50;1.70;;;17.40;46.10;;;;;;4990157;28;20057;-61
2021/03/06 03:12:13;;;;;;;2.42;1.85;;;17.40;46.10;;;;;;4988367;28;20112;-59
2021/03/06 03:14:57;;;;;;;2.72;1.80;;;17.30;46.20;;;;;;4993904;28;20761;-61
2021/03/06 03:17:25;;;;;;;2.42;1.88;;;17.30;46.20;;;;;;4994415;28;20038;-61
2021/03/06 03:20:28;;;;;;;1.55;1.45;;;17.30;46.30;;;;;;4992500;28;20084;-60
2021/03/06 03:22:56;;;;;;;2.05;1.60;;;17.20;46.30;;;;;;4992601;28;20031;-59
2021/03/06 03:25:22;;;;;;;1.90;1.50;;;17.20;46.40;;;;;;4992370;28;20034;-62
2021/03/06 03:27:48;;;;;;;2.47;1.80;;;17.20;46.60;;;;;;4989759;28;20040;-60
2021/03/06 03:30:18;;;;;;;3.85;1.80;;;17.20;46.70;;;;;;4971030;28;20029;-60
2021/03/06 03:32:45;;;;;;;2.70;1.85;;;17.10;46.70;;;;;;4992531;28;20034;-61
2021/03/06 03:35:11;;;;;;;2.30;1.70;;;17.10;46.80;;;;;;4974197;28;20121;-61
2021/03/06 03:37:36;;;;;;;2.20;1.50;;;17.10;46.90;;;;;;4990268;28;20038;-62
2021/03/06 03:40:04;;;;;;;2.80;2.00;;;17.10;46.90;;;;;;4974970;28;20853;-61
2021/03/06 03:42:29;;;;;;;3.13;2.03;;;17.20;46.90;;;;;;4989676;28;20701;-61
2021/03/06 03:44:55;;;;;;;2.65;1.70;;;17.20;46.80;;;;;;4990286;28;20040;-61
2021/03/06 03:47:20;;;;;;;2.13;1.70;;;17.20;46.70;;;;;;4998773;28;20029;-61
2021/03/06 03:49:46;;;;;;;2.58;1.73;;;17.30;46.70;;;;;;4993400;28;20540;-61
2021/03/06 03:52:11;;;;;;;3.90;1.75;;;17.30;46.60;;;;;;4992392;28;20045;-61
2021/03/06 03:54:38;;;;;;;3.13;1.80;;;17.30;46.60;;;;;;4976480;28;20045;-61
2021/03/06 03:57:04;;;;;;;2.63;1.73;;;17.40;46.60;;;;;;4971697;28;20034;-61
2021/03/06 03:59:30;;;;;;;2.38;1.58;;;17.40;46.60;;;;;;4990659;28;20038;-61
2021/03/06 04:01:56;;;;;;;2.03;1.60;;;17.40;46.50;;;;;;4974310;28;20116;-58
2021/03/06 04:04:29;;;;;;;2.33;1.40;;;17.40;46.50;;;;;;4992263;28;20118;-61
2021/03/06 04:06:58;;;;;;;1.83;1.55;;;17.40;46.60;;;;;;4992656;28;20045;-57
2021/03/06 04:09:23;;;;;;;2.80;1.40;;;17.40;46.50;;;;;;4993755;28;20045;-61
2021/03/06 04:11:49;;;;;;;3.35;2.40;;;17.50;46.50;;;;;;4989348;28;20038;-61
2021/03/06 04:14:14;;;;;;;2.78;2.08;;;17.50;46.50;;;;;;4996947;28;20048;-63
2021/03/06 04:16:40;;;;;;;1.95;1.65;;;17.50;46.50;;;;;;4995432;28;20031;-64
2021/03/06 04:19:05;;;;;;;3.05;1.58;;;17.50;46.40;;;;;;4992217;28;20030;-61
2021/03/06 04:21:31;;;;;;;2.10;1.48;;;17.40;46.40;;;;;;4988843;28;20035;-61
2021/03/06 04:23:57;;;;;;;3.05;1.67;;;17.50;46.40;;;;;;4993948;28;20022;-61
2021/03/06 04:26:23;;;;;;;2.92;1.58;;;17.50;46.30;;;;;;4993976;28;20041;-61
2021/03/06 04:28:49;;;;;;;2.95;2.33;;;17.50;46.20;;;;;;4974367;28;20521;-61
2021/03/06 04:31:14;;;;;;;2.08;1.88;;;17.40;46.20;;;;;;4991808;28;20061;-60
2021/03/06 04:33:40;;;;;;;1.40;1.27;;;17.40;46.20;;;;;;4991497;28;20036;-62
2021/03/06 04:36:06;;;;;;;1.75;1.52;;;17.50;46.20;;;;;;4984066;28;20109;-61
2021/03/06 04:38:31;;;;;;;1.83;1.50;;;17.40;46.70;;;;;;4990755;28;20041;-61
2021/03/06 04:40:56;;;;;;;3.10;2.03;;;17.40;46.10;;;;;;4997248;28;20414;-62
2021/03/06 04:43:22;;;;;;;2.42;1.50;;;17.40;46.00;;;;;;4990028;28;20045;-62
2021/03/06 04:45:47;;;;;;;3.05;1.65;;;17.40;46.00;;;;;;4992497;28;20031;-59
2021/03/06 04:48:13;;;;;;;2.50;1.88;;;17.40;46.00;;;;;;4993723;28;20121;-62
2021/03/06 04:50:39;;;;;;;1.60;1.50;;;17.40;45.90;;;;;;4989614;28;20030;-60
2021/03/06 04:53:04;;;;;;;3.88;1.80;;;17.40;45.90;;;;;;4989612;28;20095;-62
2021/03/06 04:55:30;;;;;;;2.53;1.83;;;17.40;45.90;;;;;;4993073;28;20516;-61
2021/03/06 04:57:55;;;;;;;2.95;1.55;;;17.40;45.80;;;;;;4994903;28;20049;-61
2021/03/06 05:00:21;;;;;;;2.85;1.70;;;17.40;45.80;;;;;;4997437;28;20041;-61
2021/03/06 05:02:46;;;;;;;2.35;1.52;;;17.40;45.80;;;;;;4996450;28;20038;-60
2021/03/06 05:05:12;;;;;;;2.42;1.40;;;17.40;45.70;;;;;;4995938;28;20110;-59
2021/03/06 05:07:38;;;;;;;2.80;1.75;;;17.40;45.60;;;;;;4993973;28;20038;-61
2021/03/06 05:10:04;;;;;;;3.60;3.10;;;17.40;45.60;;;;;;4994795;28;20034;-61
2021/03/06 05:12:29;;;;;;;2.42;1.40;;;17.40;45.50;;;;;;4991749;28;20046;-60
2021/03/06 05:14:55;;;;;;;2.28;1.73;;;17.40;45.40;;;;;;4994775;28;20404;-61
2021/03/06 05:17:20;;;;;;;2.25;1.50;;;17.50;45.40;;;;;;4995425;28;20030;-61
2021/03/06 05:19:46;;;;;;;4.57;1.63;;;17.50;45.40;;;;;;4995443;28;20034;-62
2021/03/06 05:22:11;;;;;;;2.00;1.50;;;17.40;45.20;;;;;;4992873;28;20034;-61
2021/03/06 05:24:37;;;;;;;1.65;1.40;;;17.50;45.20;;;;;;4997342;28;20033;-59
2021/03/06 05:27:03;;;;;;;2.78;1.50;;;17.50;45.20;;;;;;4995222;28;20085;-60
2021/03/06 05:29:32;;;;;;;3.92;1.80;;;17.50;45.20;;;;;;4987704;28;20038;-60
2021/03/06 05:31:58;;;;;;;1.90;1.50;;;17.50;45.10;;;;;;4996735;28;20095;-61
2021/03/06 05:34:23;;;;;;;2.92;1.70;;;17.50;45.10;;;;;;4996155;28;20038;-61
2021/03/06 05:36:50;;;;;;;1.80;1.38;;;17.40;45.10;;;;;;4994442;28;20455;-61
2021/03/06 05:39:15;;;;;;;2.33;1.67;;;17.40;45.10;;;;;;4995310;28;20058;-60
2021/03/06 05:41:41;;;;;;;2.38;1.67;;;17.40;45.30;;;;;;4994491;28;20072;-61
2021/03/06 05:44:06;;;;;;;3.13;2.10;;;17.40;45.30;;;;;;4995611;28;20109;-61
2021/03/06 05:46:32;;;;;;;3.38;1.50;;;17.30;45.30;;;;;;4991671;28;20045;-61
2021/03/06 05:48:57;;;;;;;1.90;1.23;;;17.30;45.40;;;;;;4985038;28;20673;-55
2021/03/06 05:51:23;;;;;;;1.92;1.20;;;17.30;45.50;;;;;;4985144;28;20045;-60
2021/03/06 05:53:48;;;;;;;1.38;1.13;;;17.30;45.50;;;;;;4997547;28;20514;-62
2021/03/06 05:56:14;;;;;;;2.33;1.10;;;17.30;45.60;;;;;;4992830;28;20412;-61
2021/03/06 05:58:42;;;;;;;1.90;1.15;;;17.30;45.50;;;;;;4993497;28;20046;-61
2021/03/06 06:01:07;;;;;;;2.05;1.60;;;17.30;45.60;;;;;;4978829;28;20053;-60
2021/03/06 06:03:33;;;;;;;2.55;1.40;;;17.20;45.60;;;;;;4995780;28;20038;-61
2021/03/06 06:05:59;;;;;;;2.65;1.50;;;17.20;45.60;;;;;;4993460;28;20061;-61
2021/03/06 06:08:25;;;;;;;1.45;1.13;;;17.20;45.60;;;;;;4996207;28;20520;-60
2021/03/06 06:10:50;;;;;;;3.83;1.67;;;17.30;45.70;;;;;;4990536;28;20142;-62
2021/03/06 06:13:16;;;;;;;2.38;1.70;;;17.20;45.60;;;;;;4990487;28;20540;-61
2021/03/06 06:15:42;;;;;;;2.22;1.55;;;17.20;45.70;;;;;;4985382;28;20046;-59
2021/03/06 06:18:08;;;;;;;2.13;1.70;;;17.20;45.70;;;;;;4977955;28;20029;-61
2021/03/06 06:20:36;;;;;;;3.15;1.90;;;17.20;45.70;;;;;;4994935;28;20038;-61
2021/03/06 06:23:11;;;;;;;1.50;1.38;;;17.20;45.70;;;;;;4988685;28;20034;-62
2021/03/06 06:25:36;;;;;;;2.72;1.48;;;17.20;45.80;;;;;;4995126;28;20034;-57
2021/03/06 06:28:03;;;;;;;1.65;1.30;;;17.20;45.80;;;;;;4990608;28;20077;-61
2021/03/06 06:30:28;;;;;;;1.60;1.50;;;17.20;45.80;;;;;;4993590;28;20532;-55
2021/03/06 06:32:54;;;;;;;2.60;1.70;;;17.30;45.90;;;;;;4994087;28;20109;-60
2021/03/06 06:35:20;;;;;;;2.28;1.50;;;17.20;45.80;;;;;;5005866;23;20042;-64
2021/03/06 06:38:02;;;;;;;1.77;1.38;;;17.20;45.90;;;;;;4979779;28;20038;-62
2021/03/06 06:40:29;;;;;;;1.92;1.70;;;17.20;45.90;;;;;;4975843;28;20034;-62
2021/03/06 06:42:55;;;;;;;1.92;1.52;;;17.20;45.90;;;;;;4977977;28;20042;-61
2021/03/06 06:45:20;;;;;;;1.75;1.30;;;17.20;45.90;;;;;;4975197;28;20034;-65
2021/03/06 06:47:47;;;;;;;1.95;1.40;;;17.20;46.00;;;;;;4972607;28;20521;-61
2021/03/06 06:50:13;;;;;;;1.63;1.33;;;17.20;46.00;;;;;;4971823;28;21448;-63
2021/03/06 06:52:44;;;;;;;2.65;1.67;;;17.20;46.00;;;;;;4975007;28;20068;-65
2021/03/06 06:55:13;;;;;;;2.35;1.27;;;17.30;46.10;;;;;;4961565;28;20037;-61
2021/03/06 06:58:07;;;;;;;1.63;1.30;;;17.20;46.00;;;;;;4977109;28;20064;-63
2021/03/06 07:00:34;;;;;;;1.88;1.38;;;17.30;46.00;;;;;;4955886;28;20101;-65
2021/03/06 07:03:00;;;;;;;2.00;1.50;;;17.30;46.00;;;;;;4976443;28;20039;-64
2021/03/06 07:05:33;;;;;;;3.33;1.50;;;17.30;46.00;;;;;;4976466;28;20062;-61
2021/03/06 07:07:59;;;;;;;1.83;1.30;;;17.30;46.00;;;;;;4966067;28;20042;-62
2021/03/06 07:10:25;;;;;;;1.42;1.15;;;17.30;46.60;;;;;;4973637;28;20640;-65
2021/03/06 07:13:09;;;;;;;2.60;1.45;;;17.30;45.90;;;;;;4978211;28;20038;-61
2021/03/06 07:15:35;;;;;;;1.60;1.20;;;17.30;45.90;;;;;;4972126;28;20045;-61
2021/03/06 07:18:05;;;;;;;3.45;1.30;;;17.30;46.00;;;;;;4969696;28;20031;-65
2021/03/06 07:20:38;;;;;;;1.85;1.40;;;17.30;45.90;;;;;;4972867;28;20550;-65
2021/03/06 07:23:19;;;;;;;3.88;1.77;;;17.30;45.90;;;;;;4978233;28;20097;-63
2021/03/06 07:25:45;;;;;;;1.33;1.20;;;17.30;45.90;;;;;;4973962;28;20065;-62
2021/03/06 07:28:11;;;;;;;2.03;1.50;;;17.30;45.90;;;;;;4970870;28;20133;-62
2021/03/06 07:30:36;;;;;;;1.77;1.42;;;17.30;45.90;;;;;;4972144;28;20178;-65
2021/03/06 07:33:07;;;;;;;2.45;1.35;;;17.30;45.90;;;;;;4974701;28;20106;-64
2021/03/06 07:35:37;;;;;;;1.65;1.27;;;17.30;45.80;;;;;;4972864;28;20035;-65
2021/03/06 07:38:04;;;;;;;1.75;1.40;;;17.30;45.80;;;;;;4975321;28;20038;-64
2021/03/06 07:40:30;;;;;;;2.33;1.60;;;17.30;45.70;;;;;;4965458;28;20042;-65
2021/03/06 07:42:58;;;;;;;2.20;1.42;;;17.30;45.70;;;;;;4975712;28;20117;-64
2021/03/06 07:45:24;;;;;;;3.08;1.33;;;17.30;46.20;;;;;;4974025;28;20239;-63
2021/03/06 07:47:57;;;;;;;2.67;1.33;;;17.30;46.50;;;;;;4973753;28;20055;-64
2021/03/06 07:50:27;;;;;;;8.75;2.00;;;17.30;46.60;;;;;;4968770;28;20023;-64
2021/03/06 07:52:53;;;;;;;5.15;1.30;;;17.30;46.70;;;;;;4964322;28;20063;-64
2021/03/06 07:55:18;;;;;;;5.40;2.33;;;17.30;46.60;;;;;;4953771;28;20393;-63
2021/03/06 07:58:18;;;;;;;3.30;1.35;;;17.30;46.70;;;;;;4968809;28;20027;-65
2021/03/06 08:00:50;;;;;;;7.25;1.58;;;17.30;46.80;;;;;;4961522;28;20058;-66
2021/03/06 08:03:22;;;;;;;7.30;1.20;;;17.30;46.70;;;;;;4963321;28;20536;-61
2021/03/06 08:05:48;;;;;;;12.07;1.60;;;17.30;46.90;;;;;;4977216;28;20035;-61
2021/03/06 08:08:32;;;;;;;6.13;1.50;;;17.30;46.70;;;;;;4963120;28;20069;-63
2021/03/06 08:11:16;;;;;;;4.90;1.45;;;17.30;46.80;;;;;;4950470;28;20058;-60
2021/03/06 08:13:46;;;;;;;3.83;1.60;;;17.30;46.70;;;;;;4963849;28;20100;-61
2021/03/06 08:16:23;;;;;;;5.43;1.70;;;17.30;46.70;;;;;;4972461;28;20031;-63
2021/03/06 08:19:01;;;;;;;5.57;1.60;;;17.30;46.70;;;;;;4971160;28;20551;-61
2021/03/06 08:21:37;;;;;;;5.63;1.20;;;17.30;46.60;;;;;;4972115;28;20035;-63
2021/03/06 08:24:15;;;;;;;6.50;1.40;;;17.40;46.70;;;;;;4995085;28;20176;-63
2021/03/06 08:26:43;;;;;;;3.22;1.30;;;17.30;46.70;;;;;;4992651;28;20555;-64
2021/03/06 08:32:02;;;;;;;6.18;1.63;;;17.30;46.60;;;;;;4993557;28;20042;-60
2021/03/06 08:34:45;;;;;;;3.03;1.98;;;17.30;46.60;;;;;;4996859;28;20076;-64
2021/03/06 08:37:16;;;;;;;4.93;1.60;;;17.20;46.40;;;;;;5001080;28;20046;-63
2021/03/06 08:40:09;;;;;;;4.68;1.50;;;17.20;46.50;;;;;;4994935;28;20049;-61
2021/03/06 08:42:51;;;;;;;4.38;1.75;;;17.20;46.60;;;;;;4995996;28;20041;-65
2021/03/06 08:45:27;;;;;;;3.72;1.65;;;17.10;46.70;;;;;;4987496;28;20033;-60
2021/03/06 08:47:57;;;;;;;5.45;2.00;;;17.10;46.80;;;;;;4985083;28;20088;-59
2021/03/06 08:50:23;;;;;;;3.40;1.95;;;17.10;46.90;;;;;;4997568;28;20033;-65
2021/03/06 08:52:53;;;;;;;3.30;1.88;;;17.00;47.00;;;;;;4984842;28;20038;-65
2021/03/06 08:55:20;;;;;;;2.70;1.48;;;17.00;47.10;;;;;;4985758;28;20042;-63
2021/03/06 08:57:46;;;;;;;8.32;2.10;;;16.90;47.10;;;;;;4992591;28;20037;-61
2021/03/06 09:00:32;;;;;;;3.03;1.88;;;16.90;47.20;;;;;;4994407;28;20030;-60
2021/03/06 09:02:57;;;;;;;4.28;1.67;;;16.90;47.30;;;;;;5001494;28;20084;-61
2021/03/06 09:05:24;;;;;;;4.22;1.83;;;16.90;47.30;;;;;;4993180;28;20039;-64
2021/03/06 09:07:51;;;;;;;5.72;1.92;;;16.90;47.30;;;;;;4992917;28;20092;-54
2021/03/06 09:10:27;;;;;;;3.20;1.88;;;16.80;47.30;;;;;;4996386;28;20038;-60
2021/03/06 09:13:01;;;;;;;6.55;2.03;;;16.90;47.40;;;;;;4984750;28;20033;-64
2021/03/06 09:15:34;;;;;;;3.67;1.70;;;16.80;47.60;;;;;;4993788;28;20034;-64
2021/03/06 09:17:59;;;;;;;3.17;1.67;;;16.80;47.90;;;;;;4993436;28;20034;-64
2021/03/06 09:20:27;;;;;;;2.15;1.50;;;16.80;47.90;;;;;;4995628;28;20038;-62
2021/03/06 09:22:52;;;;;;;3.05;1.40;;;16.90;48.00;;;;;;4992594;28;20076;-64
2021/03/06 09:25:38;;;;;;;9.13;4.95;;;16.80;48.50;;;;;;4991597;28;20600;-60
2021/03/06 09:28:04;;;;;;;;;;;16.90;48.20;;;;;;4986469;28;20045;-63
2021/03/06 09:30:37;;;;;;;20.55;9.43;;;16.90;48.60;;;;;;4994559;28;19921;-56
2021/03/06 09:33:03;;;;;;;16.70;9.07;;;16.90;48.70;;;;;;4995962;28;20100;-63
2021/03/06 09:35:28;;;;;;;18.35;8.88;;;16.90;48.70;;;;;;4996342;28;20495;-63
2021/03/06 09:38:11;;;;;;;13.88;7.22;;;16.90;48.60;;;;;;4995372;28;20042;-60
2021/03/06 09:40:38;;;;;;;19.45;7.75;;;16.90;48.50;;;;;;4992912;28;20391;-63
2021/03/06 09:43:04;;;;;;;17.40;7.05;;;16.80;48.40;;;;;;4991047;28;20037;-63
2021/03/06 09:45:29;;;;;;;19.60;6.65;;;16.80;48.30;;;;;;4992708;28;20030;-63
2021/03/06 09:48:02;;;;;;;12.32;7.07;;;16.80;48.30;;;;;;4995567;28;20034;-58
2021/03/06 09:50:27;;;;;;;12.63;5.93;;;16.80;48.20;;;;;;4994233;28;20048;-61
2021/03/06 09:52:53;;;;;;;13.02;7.00;;;16.80;48.20;;;;;;4992286;28;20031;-63
2021/03/06 09:55:18;;;;;;;11.95;5.95;;;16.80;48.20;;;;;;4993202;28;20031;-62
2021/03/06 09:57:44;;;;;;;13.25;5.85;;;16.80;48.30;;;;;;4999836;28;20018;-64
2021/03/06 10:00:29;;;;;;;15.45;5.28;;;16.80;48.30;;;;;;4993578;28;20031;-64
2021/03/06 10:02:54;;;;;;;13.13;5.32;;;16.80;48.30;;;;;;4986903;28;20119;-63
2021/03/06 10:05:21;;;;;;;12.05;5.38;;;16.80;48.50;;;;;;4993491;28;20031;-63
2021/03/06 10:07:47;;;;;;;10.30;5.40;;;16.80;48.50;;;;;;4995492;28;20061;-63
2021/03/06 10:10:13;;;;;;;12.90;6.18;;;16.90;48.60;;;;;;4974521;28;20534;-62
2021/03/06 10:12:42;;;;;;;13.77;6.53;;;16.90;48.60;;;;;;4994299;28;20033;-65
2021/03/06 10:15:09;;;;;;;16.33;7.53;;;16.90;48.60;;;;;;4985680;28;20585;-65
2021/03/06 10:17:34;;;;;;;18.30;7.85;;;16.90;48.70;;;;;;4992739;28;20464;-65
2021/03/06 10:20:00;;;;;;;20.10;8.07;;;17.00;48.80;;;;;;4998919;28;20030;-65
2021/03/06 10:22:25;;;;;;;20.20;8.40;;;16.90;48.70;;;;;;4991955;28;20097;-65
2021/03/06 10:24:58;;;;;;;16.83;7.13;;;17.00;48.70;;;;;;4988019;28;20035;-62
2021/03/06 10:27:43;;;;;;;14.40;7.18;;;17.00;48.70;;;;;;4989324;28;20791;-64
2021/03/06 10:30:12;;;;;;;16.38;7.30;;;17.00;48.60;;;;;;4991813;28;20091;-66
2021/03/06 10:32:42;;;;;;;30.60;8.27;;;17.10;48.70;;;;;;4992622;28;20408;-61
2021/03/06 10:35:27;;;;;;;24.25;7.28;;;17.10;48.60;;;;;;4992776;28;20030;-64
2021/03/06 10:37:53;;;;;;;;;;;17.20;48.60;;;;;;4984112;28;20034;-64
2021/03/06 10:40:18;;;;;;;;;;;17.20;48.90;;;;;;4988778;28;19929;-63
2021/03/06 10:42:50;;;;;;;22.63;7.10;;;17.20;48.80;;;;;;4997884;28;19920;-62
2021/03/06 10:45:26;;;;;;;15.43;5.45;;;17.20;48.80;;;;;;4990858;28;20034;-62
2021/03/06 10:47:53;;;;;;;22.02;6.50;;;17.20;48.70;;;;;;4969262;28;20042;-62
2021/03/06 10:50:32;;;;;;;19.95;6.32;;;17.20;48.60;;;;;;4977901;28;20059;-63
2021/03/06 10:53:11;;;;;;;21.25;5.93;;;17.30;48.70;;;;;;4987030;28;20030;-63
2021/03/06 10:55:37;;;;;;;21.60;6.07;;;17.30;48.70;;;;;;4992007;28;20045;-62
2021/03/06 10:58:02;;;;;;;27.10;5.40;;;17.30;48.60;;;;;;4991850;28;20061;-63
2021/03/06 11:00:28;;;;;;;21.92;5.18;;;17.30;48.70;;;;;;4993191;28;20060;-64
2021/03/06 11:02:55;;;;;;;13.40;4.38;;;17.40;48.50;;;;;;4992498;28;20092;-63
2021/03/06 11:05:21;;;;;;;15.15;4.50;;;17.40;48.40;;;;;;4998003;28;20037;-64
2021/03/06 11:07:46;;;;;;;13.07;4.53;;;17.40;48.30;;;;;;4991721;28;20038;-64
2021/03/06 11:10:13;;;;;;;11.13;3.53;;;17.40;48.20;;;;;;4991946;28;20038;-63
2021/03/06 11:12:48;;;;;;;13.07;3.88;;;17.40;48.20;;;;;;4986967;28;20046;-64
2021/03/06 11:15:15;;;;;;;11.98;3.70;;;17.30;48.20;;;;;;4970968;28;21282;-64
2021/03/06 11:17:42;;;;;;;11.52;3.72;;;17.30;48.20;;;;;;4994472;28;20073;-64
2021/03/06 11:20:08;;;;;;;12.80;3.65;;;17.30;48.80;;;;;;4996816;28;20496;-65
2021/03/06 11:22:34;;;;;;;6.60;2.92;;;17.30;48.20;;;;;;4997576;28;20038;-63
2021/03/06 11:24:59;;;;;;;10.00;3.22;;;17.30;48.30;;;;;;4994533;28;20574;-64
2021/03/06 11:27:24;;;;;;;13.27;4.22;;;17.20;48.20;;;;;;4991826;28;20042;-64
2021/03/06 11:29:50;;;;;;;6.60;3.33;;;17.30;48.40;;;;;;4985701;28;20125;-61
2021/03/06 11:32:19;;;;;;;10.82;3.85;;;17.30;48.30;;;;;;4992244;28;20088;-64
2021/03/06 11:34:44;;;;;;;12.95;4.20;;;17.20;48.30;;;;;;4986206;28;20041;-64
2021/03/06 11:37:10;;;;;;;11.88;3.22;;;17.20;48.40;;;;;;4992625;28;20038;-64
2021/03/06 11:39:35;;;;;;;9.65;3.78;;;17.20;48.40;;;;;;4992196;28;20038;-62
2021/03/06 11:42:00;;;;;;;10.57;4.03;;;17.30;48.50;;;;;;4987167;28;20045;-64
2021/03/06 11:44:26;;;;;;;13.60;3.55;;;17.20;48.50;;;;;;4992749;28;20045;-62
2021/03/06 11:46:51;;;;;;;8.70;3.38;;;17.20;48.50;;;;;;4988963;28;20030;-61
2021/03/06 11:49:17;;;;;;;9.85;3.42;;;17.30;48.50;;;;;;4984011;28;20500;-61
2021/03/06 11:51:42;;;;;;;12.55;3.95;;;17.20;48.70;;;;;;4981500;28;20023;-64
2021/03/06 11:54:08;;;;;;;11.18;3.22;;;17.20;48.40;;;;;;4983772;28;20055;-62
2021/03/06 11:56:33;;;;;;;10.57;3.42;;;17.30;48.50;;;;;;4983342;28;20567;-64
2021/03/06 11:58:59;;;;;;;10.00;4.03;;;17.30;48.40;;;;;;4991127;28;20056;-64
2021/03/06 12:01:24;;;;;;;9.70;3.10;;;17.30;48.50;;;;;;4993182;28;20035;-63
2021/03/06 12:03:50;;;;;;;7.43;3.40;;;17.30;48.40;;;;;;4992923;28;20412;-63
2021/03/06 12:06:16;;;;;;;6.18;2.58;;;17.30;48.50;;;;;;4999686;28;20041;-60
2021/03/06 12:08:41;;;;;;;6.38;3.10;;;17.30;48.50;;;;;;4996856;28;20049;-63
2021/03/06 12:11:07;;;;;;;9.93;3.10;;;17.30;48.30;;;;;;4998742;28;20109;-61
2021/03/06 12:13:32;;;;;;;8.88;3.25;;;17.30;48.30;;;;;;4987692;28;20423;-60
2021/03/06 12:15:58;;;;;;;7.90;3.75;;;17.30;48.20;;;;;;4997514;28;20495;-64
2021/03/06 12:18:23;;;;;;;8.95;3.17;;;17.30;48.30;;;;;;4994877;28;20043;-64
2021/03/06 12:20:49;;;;;;;11.38;3.10;;;17.30;48.30;;;;;;4998879;28;20033;-63
2021/03/06 12:23:14;;;;;;;3.97;2.50;;;17.30;48.30;;;;;;4998209;28;20026;-61
2021/03/06 12:25:40;;;;;;;4.57;2.53;;;17.30;48.20;;;;;;4990883;28;20404;-63
2021/03/06 12:28:05;;;;;;;5.55;2.50;;;17.30;48.30;;;;;;4996832;28;20056;-63
2021/03/06 12:30:31;;;;;;;7.18;2.65;;;17.30;48.20;;;;;;4996339;28;20080;-60
2021/03/06 12:32:56;;;;;;;8.82;2.35;;;17.30;48.20;;;;;;4997304;28;20037;-62
2021/03/06 12:37:52;;;;;;;6.00;2.42;;;17.40;48.10;;;;;;4979105;28;20039;-77
2021/03/06 12:40:17;;;;;;;7.72;2.15;;;17.30;48.10;;;;;;4981983;28;20431;-76
2021/03/06 12:42:43;;;;;;;5.10;2.33;;;17.30;48.20;;;;;;4999916;28;20089;-77
2021/03/06 12:45:10;;;;;;;5.30;2.30;;;17.30;48.20;;;;;;4992112;28;20117;-76
2021/03/06 12:47:35;;;;;;;5.35;2.08;;;17.40;48.10;;;;;;4983209;28;20503;-77
2021/03/06 12:50:02;;;;;;;10.52;2.40;;;17.50;47.90;;;;;;4969702;28;20084;-79
2021/03/06 12:52:27;;;;;;;5.55;2.10;;;17.50;47.80;;;;;;4968706;28;20740;-78
2021/03/06 12:54:53;;;;;;;8.90;2.15;;;17.50;47.80;;;;;;4977778;28;20113;-77
2021/03/06 12:57:18;;;;;;;3.88;2.05;;;17.50;47.80;;;;;;4993732;28;20034;-77